Time;durP1;ratioP1;P1;durP2;ratioP2;P2;SDS_P1;SDS_P2;PMS_P1;PMS_P2;Temp;Humidity;BMP_temperature;BMP_pressure;BME280_temperature;BME280_humidity;BME280_pressure;Samples;Min_cycle;Max_cycle;Signal;HPM_P1;HPM_P2
2021/11/03 00:01:40;;;;;;;9.05;5.85;;;;;;;6.74;86.59;99377.25;5000061;28;20030;-78
2021/11/03 00:04:08;;;;;;;7.53;5.35;;;;;;;6.72;86.44;99384.25;4997945;28;20405;-77
2021/11/03 00:06:34;;;;;;;9.52;5.82;;;;;;;6.66;86.36;99379.06;4996488;28;20066;-77
2021/11/03 00:09:02;;;;;;;9.00;6.10;;;;;;;6.59;86.68;99379.09;4978566;28;20077;-77
2021/11/03 00:11:29;;;;;;;9.02;7.13;;;;;;;6.59;87.40;99384.34;4997043;28;20038;-78
2021/11/03 00:13:54;;;;;;;10.38;6.60;;;;;;;6.66;86.98;99379.06;4978708;28;20034;-78
2021/11/03 00:16:20;;;;;;;7.47;4.57;;;;;;;6.64;86.21;99381.69;4979320;28;20042;-78
2021/11/03 00:18:45;;;;;;;6.32;5.13;;;;;;;6.59;86.96;99384.34;4996319;28;20061;-78
2021/11/03 00:21:11;;;;;;;8.45;6.07;;;;;;;6.54;87.81;99380.88;4996957;28;20136;-78
2021/11/03 00:23:36;;;;;;;10.60;6.85;;;;;;;6.65;87.89;99377.31;4978839;28;20485;-78
2021/11/03 00:26:02;;;;;;;7.35;4.70;;;;;;;6.77;87.80;99387.69;4996209;28;20046;-78
2021/11/03 00:28:28;;;;;;;9.80;6.13;;;;;;;6.84;88.17;99386.78;4979129;28;20608;-79
2021/11/03 00:30:56;;;;;;;12.07;5.15;;;;;;;6.99;87.21;99381.34;4979163;28;20085;-78
2021/11/03 00:33:23;;;;;;;7.95;5.03;;;;;;;7.02;87.09;99383.97;4996590;28;20053;-78
2021/11/03 00:35:50;;;;;;;7.38;4.38;;;;;;;7.02;86.46;99373.47;4997471;28;20038;-77
2021/11/03 00:38:16;;;;;;;7.20;5.40;;;;;;;6.97;86.50;99377.91;4997669;28;20045;-77
2021/11/03 00:40:41;;;;;;;6.65;4.60;;;;;;;7.03;86.48;99363.84;4980347;28;20038;-78
2021/11/03 00:43:06;;;;;;;7.47;5.03;;;;;;;7.12;86.83;99368.13;4997898;28;20042;-77
2021/11/03 00:45:33;;;;;;;7.13;4.78;;;;;;;7.15;86.23;99362.81;4979656;28;20404;-79
2021/11/03 00:47:58;;;;;;;8.52;4.60;;;;;;;7.09;86.75;99368.16;4979732;28;20042;-77
2021/11/03 00:50:24;;;;;;;8.82;4.70;;;;;;;7.03;87.00;99369.09;4996961;28;20034;-77
2021/11/03 00:52:51;;;;;;;6.80;4.65;;;;;;;7.14;87.29;99369.84;4978284;28;20030;-77
2021/11/03 00:55:17;;;;;;;6.30;4.78;;;;;;;7.18;87.24;99365.44;4978223;28;20092;-78
2021/11/03 00:57:43;;;;;;;9.52;6.55;;;;;;;7.27;86.97;99361.84;4978033;28;20041;-78
2021/11/03 01:00:11;;;;;;;7.05;5.38;;;;;;;7.35;86.93;99358.22;4978619;28;20030;-77
2021/11/03 01:02:36;;;;;;;8.88;5.45;;;;;;;7.46;86.44;99356.31;4977816;28;20077;-77
2021/11/03 01:05:04;;;;;;;6.68;4.05;;;;;;;7.52;86.73;99351.91;4978122;28;20073;-78
2021/11/03 01:07:29;;;;;;;7.95;5.53;;;;;;;7.55;86.21;99358.00;4971639;28;20034;-77
2021/11/03 01:09:54;;;;;;;9.10;5.10;;;;;;;7.54;85.56;99350.13;4981871;28;20423;-77
2021/11/03 01:12:20;;;;;;;7.50;4.80;;;;;;;7.47;85.80;99347.59;4996374;28;20397;-76
2021/11/03 01:14:46;;;;;;;6.22;4.30;;;;;;;7.40;85.59;99343.28;4978809;28;20525;-78
2021/11/03 01:17:11;;;;;;;8.32;5.32;;;;;;;7.39;85.93;99346.81;4996543;28;20037;-77
2021/11/03 01:19:37;;;;;;;8.70;5.60;;;;;;;7.32;85.76;99339.03;4989235;28;20117;-77
2021/11/03 01:22:03;;;;;;;6.78;5.07;;;;;;;7.32;86.45;99345.16;4978746;28;20519;-78
2021/11/03 01:24:28;;;;;;;6.13;4.70;;;;;;;7.25;86.47;99348.72;4978767;28;20045;-78
2021/11/03 01:26:54;;;;;;;7.45;4.95;;;;;;;7.22;87.07;99354.00;4996239;28;20041;-78
2021/11/03 01:29:19;;;;;;;6.82;5.55;;;;;;;7.20;87.29;99361.03;4978508;28;20048;-77
2021/11/03 01:31:44;;;;;;;9.63;5.13;;;;;;;7.22;88.17;99364.50;4978190;28;20122;-77
2021/11/03 01:34:10;;;;;;;7.05;4.97;;;;;;;7.27;87.78;99360.06;4977688;28;20039;-77
2021/11/03 01:36:35;;;;;;;6.40;4.65;;;;;;;7.36;87.69;99359.09;4979301;28;20072;-78
2021/11/03 01:39:04;;;;;;;6.65;4.97;;;;;;;7.43;87.47;99356.38;4979421;28;20065;-78
2021/11/03 01:41:30;;;;;;;7.70;4.90;;;;;;;7.42;86.16;99364.28;4997110;28;20041;-78
2021/11/03 01:44:08;;;;;;;8.15;4.47;;;;;;;7.35;86.59;99352.97;4962393;28;20034;-77
2021/11/03 01:46:53;;;;;;;8.43;4.32;;;;;;;7.26;86.21;99355.72;4994120;28;20058;-77
2021/11/03 01:49:29;;;;;;;4.80;3.63;;;;;;;7.23;86.75;99360.97;4980900;28;20042;-77
2021/11/03 01:52:12;;;;;;;5.57;3.67;;;;;;;7.26;87.48;99360.97;4975397;28;20093;-77
2021/11/03 01:54:49;;;;;;;6.35;4.53;;;;;;;7.29;86.91;99366.19;4978748;28;20034;-78
2021/11/03 01:57:24;;;;;;;7.57;3.83;;;;;;;7.29;87.06;99362.69;4975528;28;20033;-78
2021/11/03 01:59:56;;;;;;;6.50;4.00;;;;;;;7.35;87.10;99366.09;4983845;28;20030;-78
2021/11/03 02:02:22;;;;;;;5.90;4.32;;;;;;;7.29;86.60;99376.69;4978842;28;20046;-77
2021/11/03 02:04:51;;;;;;;5.90;3.70;;;;;;;7.30;86.98;99381.03;4987133;28;20031;-78
2021/11/03 02:07:24;;;;;;;5.88;4.30;;;;;;;7.42;87.05;99374.78;4979097;28;20097;-78
2021/11/03 02:09:51;;;;;;;6.35;4.45;;;;;;;7.45;86.13;99382.63;4979072;28;20034;-78
2021/11/03 02:12:18;;;;;;;5.15;4.03;;;;;;;7.38;86.40;99391.44;4978680;28;20030;-78
2021/11/03 02:14:45;;;;;;;6.25;4.70;;;;;;;7.33;86.88;99386.25;4978385;28;20038;-78
2021/11/03 02:17:11;;;;;;;6.20;3.75;;;;;;;7.35;87.20;99387.09;4978428;28;20477;-78
2021/11/03 02:19:36;;;;;;;5.53;4.00;;;;;;;7.42;86.13;99388.78;4994611;28;20034;-78
2021/11/03 02:22:35;;;;;;;7.45;4.78;;;;;;;7.40;86.54;99384.44;4977814;28;20034;-78
2021/11/03 02:25:06;;;;;;;6.82;5.57;;;;;;;7.43;86.74;99379.13;4972168;28;20034;-77
2021/11/03 02:27:35;;;;;;;7.20;4.55;;;;;;;7.56;86.62;99379.84;4978382;28;20038;-78
2021/11/03 02:30:03;;;;;;;5.60;3.58;;;;;;;7.70;86.67;99383.16;4977457;28;20081;-78
2021/11/03 02:32:31;;;;;;;5.55;3.92;;;;;;;7.84;86.43;99375.13;4979159;28;20065;-78
2021/11/03 02:34:57;;;;;;;5.20;3.53;;;;;;;7.97;86.47;99381.09;4976965;28;20053;-78
2021/11/03 02:37:28;;;;;;;7.15;4.57;;;;;;;8.06;86.09;99380.94;5000485;28;20507;-77
2021/11/03 02:40:10;;;;;;;5.57;3.80;;;;;;;8.10;85.51;99380.03;4979087;28;20041;-78
2021/11/03 02:42:41;;;;;;;5.28;3.90;;;;;;;8.19;85.72;99376.38;4979566;28;20034;-78
2021/11/03 02:45:16;;;;;;;4.97;4.05;;;;;;;8.22;85.10;99379.81;4981350;28;20031;-78
2021/11/03 02:47:42;;;;;;;5.25;3.67;;;;;;;8.16;84.59;99377.28;4991854;28;20069;-78
2021/11/03 02:50:10;;;;;;;4.82;3.60;;;;;;;8.04;84.53;99366.94;4996702;28;20069;-78
2021/11/03 02:52:36;;;;;;;4.40;3.40;;;;;;;7.89;84.46;99370.69;4983004;28;20575;-78
2021/11/03 02:55:05;;;;;;;4.43;3.13;;;;;;;7.71;84.76;99366.53;4996767;28;20026;-78
2021/11/03 02:57:30;;;;;;;5.10;3.42;;;;;;;7.51;85.39;99355.41;4992274;28;20077;-78
2021/11/03 02:59:56;;;;;;;5.40;4.00;;;;;;;7.33;84.96;99362.63;4978395;28;20046;-78
2021/11/03 03:02:21;;;;;;;5.15;3.38;;;;;;;7.20;85.43;99355.78;4978258;28;20038;-78
2021/11/03 03:04:51;;;;;;;5.18;3.75;;;;;;;7.05;85.83;99354.22;4995206;28;20479;-78
2021/11/03 03:07:17;;;;;;;6.70;4.32;;;;;;;6.90;86.05;99360.47;4977816;28;20038;-78
2021/11/03 03:09:44;;;;;;;8.02;4.03;;;;;;;6.75;85.79;99374.59;4978146;28;20049;-78
2021/11/03 03:12:13;;;;;;;6.35;3.63;;;;;;;6.57;85.92;99367.75;4962197;28;20405;-78
2021/11/03 03:14:43;;;;;;;7.57;4.47;;;;;;;6.43;86.46;99376.63;4975759;28;20038;-77
2021/11/03 03:17:12;;;;;;;4.97;3.70;;;;;;;6.29;87.08;99372.38;4977313;28;20138;-78
2021/11/03 03:19:40;;;;;;;4.70;3.30;;;;;;;6.12;87.72;99367.22;4984742;28;20030;-78
2021/11/03 03:22:05;;;;;;;6.45;3.15;;;;;;;6.02;88.14;99381.25;4975663;28;20038;-79
2021/11/03 03:24:31;;;;;;;4.97;3.17;;;;;;;5.95;88.04;99381.31;4993393;28;20026;-78
2021/11/03 03:26:57;;;;;;;5.63;3.72;;;;;;;5.83;87.81;99390.09;4993136;28;20034;-78
2021/11/03 03:29:22;;;;;;;5.63;3.80;;;;;;;5.71;87.90;99375.28;4972935;28;20018;-78
2021/11/03 03:31:48;;;;;;;4.55;3.35;;;;;;;5.61;88.05;99379.72;4976498;28;20030;-78
2021/11/03 03:34:23;;;;;;;6.03;4.20;;;;;;;5.56;88.18;99386.72;4976049;28;20117;-77
2021/11/03 03:36:51;;;;;;;6.35;3.53;;;;;;;5.50;88.60;99378.88;4976303;28;20085;-78
2021/11/03 03:39:19;;;;;;;6.32;4.68;;;;;;;5.46;89.18;99395.47;4976301;28;20046;-78
2021/11/03 03:41:49;;;;;;;6.90;4.80;;;;;;;5.39;89.08;99394.63;4993766;28;20053;-77
2021/11/03 03:44:16;;;;;;;9.20;5.00;;;;;;;5.28;89.45;99399.88;4983565;28;20125;-77
2021/11/03 03:46:41;;;;;;;4.68;3.28;;;;;;;5.19;88.93;99394.69;4993300;28;20141;-77
2021/11/03 03:49:07;;;;;;;7.03;3.50;;;;;;;5.11;89.05;99399.06;4975662;28;20040;-77
2021/11/03 03:51:33;;;;;;;4.60;3.10;;;;;;;5.04;89.19;99402.56;4975704;28;20115;-78
2021/11/03 03:53:58;;;;;;;6.15;3.60;;;;;;;4.96;88.90;99409.56;4984053;28;20038;-77
2021/11/03 03:56:24;;;;;;;6.40;4.47;;;;;;;4.90;89.24;99401.72;4975708;28;20193;-77
2021/11/03 03:58:52;;;;;;;5.75;3.70;;;;;;;4.83;89.63;99401.72;4975724;28;20061;-78
2021/11/03 04:01:21;;;;;;;5.30;3.85;;;;;;;4.76;89.78;99397.38;4976210;28;20102;-78
2021/11/03 04:03:47;;;;;;;4.57;3.35;;;;;;;4.70;90.08;99396.50;4975758;28;20408;-78
2021/11/03 04:06:15;;;;;;;7.35;3.45;;;;;;;4.64;89.61;99397.41;4975757;28;20109;-78
2021/11/03 04:08:41;;;;;;;5.22;3.47;;;;;;;4.58;89.76;99402.59;4975657;28;20073;-78
2021/11/03 04:11:08;;;;;;;6.95;4.53;;;;;;;4.54;89.78;99398.25;4971642;28;20031;-77
2021/11/03 04:13:35;;;;;;;5.20;3.00;;;;;;;4.51;89.72;99398.28;4975238;28;20021;-78
2021/11/03 04:16:01;;;;;;;5.32;3.33;;;;;;;4.44;89.48;99400.00;4975625;28;20073;-78
2021/11/03 04:18:28;;;;;;;10.70;4.30;;;;;;;4.37;89.54;99400.84;4975871;28;20511;-78
2021/11/03 04:20:54;;;;;;;6.18;3.72;;;;;;;4.32;89.61;99405.19;4975742;28;20039;-78
2021/11/03 04:23:19;;;;;;;5.05;3.45;;;;;;;4.29;89.66;99415.66;4991150;28;20034;-77
2021/11/03 04:25:46;;;;;;;6.20;3.60;;;;;;;4.27;89.69;99409.53;4975649;28;20036;-78
2021/11/03 04:28:13;;;;;;;5.50;3.42;;;;;;;4.13;89.09;99414.75;4977505;28;20096;-78
2021/11/03 04:30:39;;;;;;;9.27;3.72;;;;;;;4.00;88.43;99411.25;4973656;28;20038;-78
2021/11/03 04:33:05;;;;;;;24.77;6.03;;;;;;;3.98;89.43;99415.59;4971662;28;20049;-78
2021/11/03 04:43:47;;;;;;;6.10;3.70;;;;;;;3.88;91.04;99421.66;4236804;26;20050;-78
2021/11/03 04:46:21;;;;;;;9.80;4.97;;;;;;;3.88;91.34;99419.06;4991379;28;20468;-77
2021/11/03 04:48:57;;;;;;;6.63;4.38;;;;;;;3.85;90.72;99425.16;4979143;28;20049;-77
2021/11/03 04:51:28;;;;;;;11.25;7.32;;;;;;;3.86;91.15;99429.47;4978655;28;20041;-77
2021/11/03 04:57:31;;;;;;;7.40;3.88;;;;;;;3.78;90.90;99432.94;4972015;28;20035;-77
2021/11/03 05:01:19;;;;;;;;;;;;;;;;;;;;;
2021/11/03 05:04:24;;;;;;;;;;;;;;;3.67;91.71;99425.94;4972249;28;20539;-77
2021/11/03 05:07:04;;;;;;;6.13;3.70;;;;;;;3.72;91.01;99425.94;4975358;28;20288;-77
2021/11/03 05:09:32;;;;;;;6.05;4.07;;;;;;;3.72;90.96;99425.94;4977537;28;20658;-78
2021/11/03 05:11:59;;;;;;;5.15;3.67;;;;;;;3.71;91.47;99424.19;4979968;28;20027;-78
2021/11/03 05:14:26;;;;;;;5.38;3.70;;;;;;;3.71;91.37;99432.03;4977998;28;20042;-78
2021/11/03 05:16:53;;;;;;;5.78;3.97;;;;;;;3.71;91.11;99432.91;4977411;28;20528;-77
2021/11/03 05:19:25;;;;;;;5.70;3.80;;;;;;;3.72;90.97;99434.66;4977261;28;20125;-77
2021/11/03 05:21:55;;;;;;;6.13;4.18;;;;;;;3.71;90.74;99432.03;4976812;28;20035;-77
2021/11/03 05:24:22;;;;;;;4.82;3.38;;;;;;;3.69;90.53;99438.97;4979551;28;20452;-78
2021/11/03 05:26:48;;;;;;;6.68;4.57;;;;;;;3.67;91.33;99436.38;4996012;28;20038;-78
2021/11/03 05:29:14;;;;;;;5.97;4.05;;;;;;;3.67;91.49;99438.13;4979346;28;20089;-78
2021/11/03 05:31:40;;;;;;;5.07;3.25;;;;;;;3.65;90.97;99440.72;4979630;28;20045;-77
2021/11/03 05:34:05;;;;;;;5.32;3.60;;;;;;;3.65;90.95;99439.84;4979503;28;20042;-78
2021/11/03 05:36:31;;;;;;;6.07;2.85;;;;;;;3.66;90.57;99433.75;4996181;28;20034;-78
2021/11/03 05:39:00;;;;;;;6.97;3.03;;;;;;;3.73;90.30;99430.31;4995664;28;20062;-78
2021/11/03 05:41:25;;;;;;;5.00;3.10;;;;;;;3.82;90.88;99432.94;4994014;28;20480;-77
2021/11/03 05:43:50;;;;;;;4.72;2.97;;;;;;;3.92;90.29;99437.31;4993133;28;20034;-76
2021/11/03 05:46:23;;;;;;;5.63;3.75;;;;;;;4.06;90.81;99439.09;4976235;28;20038;-77
2021/11/03 05:48:50;;;;;;;6.05;3.33;;;;;;;4.16;90.31;99433.91;4978018;28;20111;-78
2021/11/03 05:51:17;;;;;;;5.53;3.47;;;;;;;4.24;89.80;99439.13;4979889;28;20042;-78
2021/11/03 05:53:43;;;;;;;5.85;3.72;;;;;;;4.32;89.83;99437.44;4993702;28;20046;-82
2021/11/03 05:56:09;;;;;;;5.30;3.80;;;;;;;4.45;89.78;99450.50;4976245;28;20101;-78
2021/11/03 05:58:36;;;;;;;6.32;3.72;;;;;;;4.55;89.36;99447.03;4995007;28;20026;-77
2021/11/03 06:01:03;;;;;;;8.65;4.47;;;;;;;4.66;89.40;99447.91;4999203;28;20026;-78
2021/11/03 06:03:28;;;;;;;5.90;3.45;;;;;;;4.72;89.16;99450.53;4995043;28;20089;-78
2021/11/03 06:05:53;;;;;;;6.00;3.10;;;;;;;4.76;89.31;99439.19;4969245;28;20040;-78
2021/11/03 06:08:19;;;;;;;5.07;3.28;;;;;;;4.80;88.56;99446.16;4996818;28;20130;-78
2021/11/03 06:10:46;;;;;;;8.10;3.65;;;;;;;4.84;89.11;99450.50;4996455;28;20178;-77
2021/11/03 06:13:14;;;;;;;7.90;4.82;;;;;;;4.92;89.23;99454.88;4975701;28;20091;-78
2021/11/03 06:15:40;;;;;;;5.63;4.20;;;;;;;5.04;89.15;99454.88;4999301;28;20045;-77
2021/11/03 06:18:07;;;;;;;6.97;3.95;;;;;;;5.20;88.66;99456.59;4981836;28;20030;-78
2021/11/03 06:20:32;;;;;;;5.65;4.05;;;;;;;5.31;88.45;99456.56;4977959;28;20041;-78
2021/11/03 06:22:58;;;;;;;5.95;4.40;;;;;;;5.37;87.94;99459.19;4978022;28;20042;-78
2021/11/03 06:25:24;;;;;;;7.10;4.22;;;;;;;5.47;87.97;99460.88;4996607;28;20077;-78
2021/11/03 06:27:50;;;;;;;6.72;3.97;;;;;;;5.55;87.58;99458.25;4979192;28;20031;-78
2021/11/03 06:30:19;;;;;;;6.78;4.63;;;;;;;5.56;87.76;99452.16;4995767;28;20073;-78
2021/11/03 06:32:44;;;;;;;6.75;4.38;;;;;;;5.61;87.75;99453.00;4977295;28;20408;-78
2021/11/03 06:35:11;;;;;;;6.45;4.93;;;;;;;5.70;88.42;99455.56;4994944;28;20050;-78
2021/11/03 06:37:37;;;;;;;6.63;3.70;;;;;;;5.82;87.66;99456.44;4995024;28;20038;-78
2021/11/03 06:40:11;;;;;;;7.55;4.68;;;;;;;5.86;88.49;99459.00;4977729;28;20049;-78
2021/11/03 06:42:37;;;;;;;6.53;3.85;;;;;;;5.98;88.67;99467.75;4994676;28;20034;-78
2021/11/03 06:45:05;;;;;;;6.60;4.70;;;;;;;6.13;88.19;99468.53;4994678;28;20522;-78
2021/11/03 06:47:31;;;;;;;6.82;4.00;;;;;;;6.25;87.78;99471.97;4995157;28;20030;-78
2021/11/03 06:49:57;;;;;;;5.35;3.83;;;;;;;6.37;87.32;99471.91;4995099;28;20564;-78
2021/11/03 06:52:22;;;;;;;7.20;3.45;;;;;;;6.47;86.56;99478.81;4995662;28;20042;-78
2021/11/03 06:54:47;;;;;;;6.25;4.10;;;;;;;6.53;86.39;99481.41;4979619;28;20030;-78
2021/11/03 06:57:13;;;;;;;5.50;3.90;;;;;;;6.65;85.91;99487.44;4978364;28;20505;-78
2021/11/03 06:59:39;;;;;;;7.53;4.55;;;;;;;6.74;86.46;99483.00;4994602;28;20030;-78
2021/11/03 07:02:05;;;;;;;7.18;4.30;;;;;;;6.87;85.88;99482.91;4993876;28;20034;-78
2021/11/03 07:04:31;;;;;;;12.55;6.75;;;;;;;6.95;85.72;99488.97;4993904;28;20034;-78
2021/11/03 07:06:57;;;;;;;11.82;7.93;;;;;;;7.06;86.15;99494.13;4993955;28;20038;-78
2021/11/03 07:09:23;;;;;;;13.88;8.85;;;;;;;7.20;85.69;99497.47;4975663;28;20042;-78
2021/11/03 07:11:48;;;;;;;10.15;7.47;;;;;;;7.32;85.17;99499.13;4976605;28;20026;-78
2021/11/03 07:14:13;;;;;;;7.68;5.90;;;;;;;7.41;85.09;99494.69;5002497;28;20551;-78
2021/11/03 07:16:39;;;;;;;6.35;4.88;;;;;;;7.53;84.62;99501.53;4977346;28;20034;-78
2021/11/03 07:19:04;;;;;;;8.20;5.47;;;;;;;7.59;84.46;99504.09;4994305;28;20121;-78
2021/11/03 07:21:30;;;;;;;6.00;3.97;;;;;;;7.60;84.30;99503.22;4976932;28;20038;-78
2021/11/03 07:23:55;;;;;;;5.15;3.40;;;;;;;7.62;84.49;99508.44;4998193;28;20042;-78
2021/11/03 07:26:20;;;;;;;8.10;4.63;;;;;;;7.61;84.37;99504.97;4978932;28;20078;-78
2021/11/03 07:28:46;;;;;;;6.88;4.20;;;;;;;7.67;84.40;99502.25;4977415;28;20049;-78
2021/11/03 07:31:11;;;;;;;7.00;5.05;;;;;;;7.78;84.60;99503.91;4995280;28;20125;-78
2021/11/03 07:33:37;;;;;;;6.60;4.82;;;;;;;7.81;84.06;99496.00;4995770;28;20042;-78
2021/11/03 07:36:04;;;;;;;7.07;5.30;;;;;;;7.83;83.35;99496.84;4996325;28;20041;-78
2021/11/03 07:38:30;;;;;;;7.82;4.30;;;;;;;7.80;83.14;99500.38;4993872;28;20026;-77
2021/11/03 07:40:57;;;;;;;7.45;3.88;;;;;;;7.79;83.15;99510.91;4977819;28;20038;-78
2021/11/03 07:43:24;;;;;;;5.88;4.18;;;;;;;7.77;83.39;99494.28;4995217;28;20034;-78
2021/11/03 07:45:52;;;;;;;6.50;4.97;;;;;;;7.76;82.97;99493.44;4994580;28;20045;-78
2021/11/03 07:48:18;;;;;;;7.57;5.28;;;;;;;7.74;83.31;99505.69;4995407;28;20073;-78
2021/11/03 07:50:50;;;;;;;6.85;4.47;;;;;;;7.74;83.25;99503.06;4977363;28;20516;-78
2021/11/03 07:53:17;;;;;;;6.63;3.63;;;;;;;7.73;82.75;99514.47;4977320;28;20097;-77
2021/11/03 07:55:46;;;;;;;7.55;4.50;;;;;;;7.75;83.56;99510.06;4977242;28;20038;-77
2021/11/03 07:58:21;;;;;;;8.15;4.57;;;;;;;7.79;83.22;99501.25;4994874;28;20034;-78
2021/11/03 08:00:49;;;;;;;7.80;4.45;;;;;;;7.85;83.31;99506.44;4977253;28;20031;-78
2021/11/03 08:03:14;;;;;;;7.40;5.03;;;;;;;7.94;83.33;99496.69;4995619;28;20630;-78
2021/11/03 08:05:40;;;;;;;7.05;4.55;;;;;;;8.03;83.48;99500.09;4995447;28;20030;-78
2021/11/03 08:08:12;;;;;;;6.65;5.30;;;;;;;8.17;83.48;99493.78;4995133;28;20035;-78
2021/11/03 08:10:41;;;;;;;8.88;4.20;;;;;;;8.27;83.05;99493.66;4994423;28;20051;-78
2021/11/03 08:13:12;;;;;;;5.20;3.78;;;;;;;8.36;82.40;99495.31;4994541;28;20105;-78
2021/11/03 08:15:38;;;;;;;4.72;3.30;;;;;;;8.47;81.80;99496.06;4994328;28;20508;-78
2021/11/03 08:18:03;;;;;;;6.43;3.95;;;;;;;8.52;81.24;99498.63;4980314;28;20042;-78
2021/11/03 08:20:28;;;;;;;6.32;3.47;;;;;;;8.57;80.96;99491.53;4980458;28;20050;-78
2021/11/03 08:22:55;;;;;;;6.35;4.10;;;;;;;8.60;80.79;99488.00;4998874;28;20092;-78
2021/11/03 08:25:21;;;;;;;4.80;3.30;;;;;;;8.67;80.33;99489.63;4998036;28;20175;-78
2021/11/03 08:27:46;;;;;;;6.38;3.78;;;;;;;8.75;80.24;99495.63;5001635;28;20109;-78
2021/11/03 08:30:14;;;;;;;7.78;3.88;;;;;;;8.84;80.40;99498.13;4988768;28;20046;-78
2021/11/03 08:32:51;;;;;;;6.43;3.75;;;;;;;8.95;79.74;99497.97;4981157;28;20382;-78
2021/11/03 08:35:18;;;;;;;6.15;2.75;;;;;;;9.04;79.26;99505.72;4997128;28;20034;-78
2021/11/03 08:37:46;;;;;;;4.93;3.00;;;;;;;9.13;78.69;99504.69;4964687;28;20400;-78
2021/11/03 08:40:14;;;;;;;4.35;2.80;;;;;;;9.18;77.38;99501.09;5003778;28;20038;-78
2021/11/03 08:42:40;;;;;;;4.38;2.92;;;;;;;9.22;77.19;99501.88;4964045;28;20035;-78
2021/11/03 08:45:06;;;;;;;5.43;3.03;;;;;;;9.30;76.45;99493.84;4979964;28;20053;-78
2021/11/03 08:47:33;;;;;;;6.50;2.72;;;;;;;9.44;75.97;99491.88;4998812;28;20076;-78
2021/11/03 08:49:58;;;;;;;5.47;2.90;;;;;;;9.52;75.29;99479.41;4979952;28;20417;-78
2021/11/03 08:52:24;;;;;;;5.00;3.35;;;;;;;9.59;74.97;99486.31;4997132;28;20034;-78
2021/11/03 08:54:49;;;;;;;5.30;3.00;;;;;;;9.63;75.08;99487.13;4996249;28;20074;-78
2021/11/03 08:57:17;;;;;;;4.80;2.92;;;;;;;9.75;74.92;99478.13;4996635;28;20131;-78
2021/11/03 08:59:42;;;;;;;4.22;3.00;;;;;;;9.82;74.20;99477.97;4979416;28;20125;-77
2021/11/03 09:02:09;;;;;;;4.20;3.13;;;;;;;9.93;74.25;99479.50;4996864;28;20117;-78
2021/11/03 09:04:35;;;;;;;5.00;3.85;;;;;;;10.06;73.80;99478.34;4997042;28;20038;-78
2021/11/03 09:07:00;;;;;;;6.90;3.08;;;;;;;10.17;73.02;99475.50;4993095;28;20045;-78
2021/11/03 09:09:26;;;;;;;5.88;3.85;;;;;;;10.34;72.47;99470.75;4997244;28;20486;-78
2021/11/03 09:11:52;;;;;;;4.78;3.20;;;;;;;10.45;71.64;99473.16;4979670;28;20034;-78
2021/11/03 09:14:21;;;;;;;5.63;3.50;;;;;;;10.35;69.44;99467.22;4986667;28;20045;-78
2021/11/03 09:16:50;;;;;;;4.28;3.22;;;;;;;10.35;70.58;99479.53;4997782;28;20404;-78
2021/11/03 09:19:17;;;;;;;6.95;3.42;;;;;;;10.38;69.76;99480.34;4997535;28;20046;-78
2021/11/03 09:21:43;;;;;;;6.57;3.40;;;;;;;10.42;70.51;99482.00;4997686;28;20077;-78
2021/11/03 09:24:09;;;;;;;5.25;3.80;;;;;;;10.45;70.13;99479.31;4980495;28;20046;-78
2021/11/03 09:26:35;;;;;;;5.38;3.92;;;;;;;10.52;68.99;99478.25;4995067;28;20038;-79
2021/11/03 09:29:02;;;;;;;5.22;4.00;;;;;;;10.58;69.21;99471.09;4997557;28;20045;-78
2021/11/03 09:31:28;;;;;;;5.72;4.22;;;;;;;10.56;69.05;99465.88;4998004;28;20506;-78
2021/11/03 09:33:53;;;;;;;5.57;3.75;;;;;;;10.60;68.60;99458.75;4997376;28;20088;-78
2021/11/03 09:36:21;;;;;;;5.38;3.90;;;;;;;10.56;68.08;99454.44;4979892;28;20065;-78
2021/11/03 09:38:47;;;;;;;6.22;4.07;;;;;;;10.56;67.78;99442.13;4979984;28;20061;-78
2021/11/03 09:41:21;;;;;;;5.65;3.92;;;;;;;10.58;67.71;99447.34;4997166;28;20042;-78
2021/11/03 09:43:59;;;;;;;6.60;4.25;;;;;;;10.60;67.25;99449.06;4997840;28;20038;-78
2021/11/03 09:46:37;;;;;;;6.43;4.40;;;;;;;10.64;68.07;99452.50;5003747;28;20038;-78
2021/11/03 09:49:09;;;;;;;7.35;4.47;;;;;;;10.73;67.90;99457.56;4995798;28;20073;-78
2021/11/03 09:51:37;;;;;;;6.22;4.80;;;;;;;10.81;67.67;99458.22;4997906;28;20140;-78
2021/11/03 09:54:07;;;;;;;6.78;4.53;;;;;;;10.84;66.83;99458.16;4979317;28;20072;-78
2021/11/03 09:56:42;;;;;;;6.13;4.43;;;;;;;10.91;66.88;99453.59;4999271;28;20397;-78
2021/11/03 09:59:43;;;;;;;6.47;4.20;;;;;;;10.98;65.92;99449.91;4996308;28;20389;-78
2021/11/03 10:02:24;;;;;;;7.97;4.07;;;;;;;11.07;66.46;99448.81;4949004;28;20038;-78
2021/11/03 10:04:57;;;;;;;5.97;3.47;;;;;;;11.12;66.61;99455.69;4994135;28;20041;-78
2021/11/03 10:07:35;;;;;;;4.95;3.30;;;;;;;11.19;66.34;99445.84;4998254;28;20035;-78
2021/11/03 10:10:08;;;;;;;7.32;4.72;;;;;;;11.25;64.23;99447.47;4995441;28;20101;-78
2021/11/03 10:12:34;;;;;;;6.05;3.58;;;;;;;11.37;64.79;99442.72;4994951;28;20042;-78
2021/11/03 10:14:59;;;;;;;3.85;2.35;;;;;;;11.52;64.20;99441.44;4996665;28;20092;-78
2021/11/03 10:17:29;;;;;;;5.38;3.00;;;;;;;11.66;63.75;99442.81;4993873;28;20158;-78
2021/11/03 10:19:56;;;;;;;9.05;5.28;;;;;;;11.75;64.18;99450.50;4995568;28;20405;-78
2021/11/03 10:22:36;;;;;;;5.53;2.83;;;;;;;11.77;62.50;99454.84;4996916;28;20106;-78
2021/11/03 10:25:17;;;;;;;4.45;2.35;;;;;;;11.71;62.18;99449.75;4994342;28;20037;-78
2021/11/03 10:27:51;;;;;;;7.00;2.85;;;;;;;11.70;62.44;99445.34;4984534;28;20025;-78
2021/11/03 10:30:28;;;;;;;4.55;2.47;;;;;;;11.62;61.52;99434.97;4996762;28;20507;-78
2021/11/03 10:32:55;;;;;;;3.85;2.50;;;;;;;11.68;62.65;99431.28;4993276;28;20054;-79
2021/11/03 10:35:47;;;;;;;4.63;2.50;;;;;;;11.78;61.34;99427.47;4996968;28;20038;-78
2021/11/03 10:38:16;;;;;;;3.47;1.80;;;;;;;11.82;61.47;99429.13;4988091;28;20121;-78
2021/11/03 10:40:45;;;;;;;3.30;1.73;;;;;;;11.87;61.21;99420.22;4996932;28;20103;-77
2021/11/03 10:43:29;;;;;;;4.95;1.65;;;;;;;11.89;60.07;99413.97;4978898;28;20508;-78
2021/11/03 10:46:09;;;;;;;2.55;1.25;;;;;;;11.93;59.48;99406.84;4994213;28;20767;-79
2021/11/03 10:48:35;;;;;;;1.73;1.00;;;;;;;11.96;57.41;99399.69;4995657;28;20390;-78
2021/11/03 10:51:13;;;;;;;3.10;1.52;;;;;;;11.93;58.03;99396.28;4995674;28;20045;-78
2021/11/03 10:53:38;;;;;;;3.00;1.48;;;;;;;11.97;59.59;99396.16;4986682;28;20069;-79
2021/11/03 10:56:14;;;;;;;2.10;1.15;;;;;;;11.98;57.49;99403.16;5002369;28;20449;-78
2021/11/03 10:58:48;;;;;;;2.65;1.27;;;;;;;12.05;58.37;99404.72;4998104;28;20141;-77
2021/11/03 11:01:27;;;;;;;3.75;1.05;;;;;;;12.11;56.89;99393.06;5000240;28;20050;-77
2021/11/03 11:04:04;;;;;;;3.33;1.50;;;;;;;12.18;57.28;99388.44;4992204;28;20508;-78
2021/11/03 11:06:42;;;;;;;3.28;1.60;;;;;;;12.13;57.09;99401.84;4992321;28;20038;-78
2021/11/03 11:09:25;;;;;;;3.83;2.22;;;;;;;12.10;57.89;99403.69;4960396;28;20157;-79
2021/11/03 11:11:58;;;;;;;4.85;2.20;;;;;;;12.04;58.25;99408.25;4991897;28;20026;-79
2021/11/03 11:14:25;;;;;;;3.50;1.95;;;;;;;12.06;59.33;99418.78;4965666;28;20459;-78
2021/11/03 11:17:12;;;;;;;3.50;2.10;;;;;;;12.16;58.00;99420.25;4980056;28;20385;-79
2021/11/03 11:19:49;;;;;;;3.70;2.10;;;;;;;12.38;58.18;99422.22;4976496;28;20495;-79
2021/11/03 11:22:45;;;;;;;4.53;2.33;;;;;;;12.62;57.14;99416.16;4990510;28;20045;-79
2021/11/03 11:25:18;;;;;;;5.43;3.30;;;;;;;12.89;57.52;99408.22;4972026;28;20121;-79
2021/11/03 11:28:13;;;;;;;9.77;5.72;;;;;;;13.18;55.48;99409.00;4990310;28;20034;-79
2021/11/03 11:30:50;;;;;;;9.02;5.45;;;;;;;13.45;55.79;99408.06;4989169;28;20030;-78
2021/11/03 11:33:26;;;;;;;5.43;3.10;;;;;;;13.72;54.94;99411.50;4965606;28;20047;-78
2021/11/03 11:36:20;;;;;;;4.68;2.10;;;;;;;13.97;54.18;99403.50;4989671;28;20034;-78
2021/11/03 11:38:57;;;;;;;2.88;1.55;;;;;;;14.18;53.40;99404.47;4990248;28;20035;-78
2021/11/03 11:41:50;;;;;;;3.60;1.83;;;;;;;14.36;53.21;99397.56;4993987;28;20093;-78
2021/11/03 11:44:22;;;;;;;3.70;1.42;;;;;;;14.48;53.03;99380.28;4994969;28;20046;-79
2021/11/03 11:46:48;;;;;;;5.70;3.40;;;;;;;14.60;52.68;99371.00;4993580;28;20507;-78
2021/11/03 11:49:26;;;;;;;5.78;3.67;;;;;;;14.79;52.15;99369.28;4995812;28;20069;-79
2021/11/03 11:51:54;;;;;;;5.00;3.25;;;;;;;14.99;52.01;99357.84;4999280;28;20038;-79
2021/11/03 11:54:25;;;;;;;4.47;2.70;;;;;;;15.08;51.77;99360.06;4999468;28;20030;-79
2021/11/03 11:57:10;;;;;;;5.47;2.30;;;;;;;15.03;50.91;99353.22;4981407;28;20374;-80
2021/11/03 11:59:59;;;;;;;4.75;2.83;;;;;;;14.88;51.18;99347.66;4999144;28;20034;-78
2021/11/03 12:02:26;;;;;;;7.47;2.60;;;;;;;14.66;52.18;99344.19;4971405;28;20038;-79
2021/11/03 12:05:29;;;;;;;3.92;2.50;;;;;;;14.50;52.08;99340.41;4966755;28;20033;-79